Time;durP1;ratioP1;P1;durP2;ratioP2;P2;SDS_P1;SDS_P2;PMS_P1;PMS_P2;Temp;Humidity;BMP_temperature;BMP_pressure;BME280_temperature;BME280_humidity;BME280_pressure;Samples;Min_cycle;Max_cycle;Signal;HPM_P1;HPM_P2
2023/07/22 00:00:59;;;;;;;4.10;3.70;;;;;;;18.07;71.36;99859.85;104435;278;113326;-54
2023/07/22 00:03:41;;;;;;;4.70;4.20;;;;;;;18.06;71.75;99855.26;104061;278;95621;-54
2023/07/22 00:06:15;;;;;;;5.40;4.10;;;;;;;18.05;71.89;99856.10;104487;278;97898;-53
2023/07/22 00:08:50;;;;;;;5.40;4.30;;;;;;;18.01;72.27;99854.86;104610;277;121405;-53
2023/07/22 00:11:25;;;;;;;4.80;4.10;;;;;;;17.99;72.67;99852.67;104745;277;104294;-55
2023/07/22 00:13:59;;;;;;;5.00;4.30;;;;;;;17.94;73.04;99851.67;104345;277;112020;-52
2023/07/22 00:16:33;;;;;;;5.30;4.70;;;;;;;17.92;73.16;99853.11;104277;277;95262;-52
2023/07/22 00:19:07;;;;;;;5.40;4.40;;;;;;;17.89;73.31;99848.86;104271;277;99895;-54
2023/07/22 00:21:41;;;;;;;5.60;4.60;;;;;;;17.86;73.58;99847.45;104261;277;120168;-54
2023/07/22 00:24:15;;;;;;;6.00;4.20;;;;;;;17.84;73.84;99850.64;104609;277;105255;-53
2023/07/22 00:26:49;;;;;;;5.60;4.60;;;;;;;17.83;73.92;99845.23;104283;277;114571;-54
2023/07/22 00:29:21;;;;;;;;;;;;;;;17.81;74.24;99848.19;104303;277;96937;-54
2023/07/22 00:31:55;;;;;;;5.70;4.60;;;;;;;17.74;74.55;99846.99;104660;277;96797;-54
2023/07/22 00:34:29;;;;;;;4.80;4.40;;;;;;;17.76;74.67;99843.91;104255;277;120563;-55
2023/07/22 00:37:03;;;;;;;5.50;4.70;;;;;;;17.74;75.08;99848.96;104289;277;105182;-55
2023/07/22 00:39:37;;;;;;;6.10;4.40;;;;;;;17.71;75.27;99849.89;104250;277;114922;-53
2023/07/22 00:42:10;;;;;;;;;;;;;;;17.66;75.73;99848.29;104262;277;97101;-53
2023/07/22 00:44:44;;;;;;;4.50;4.00;;;;;;;17.58;75.98;99843.73;104770;277;98042;-55
2023/07/22 00:47:18;;;;;;;6.40;4.50;;;;;;;17.57;76.15;99844.68;104784;277;118715;-56
2023/07/22 00:49:54;;;;;;;7.00;4.50;;;;;;;17.56;76.39;99842.06;104359;277;104238;-55
2023/07/22 00:52:28;;;;;;;5.60;4.00;;;;;;;17.57;76.70;99836.39;104331;277;113110;-56
2023/07/22 00:55:02;;;;;;;4.90;4.50;;;;;;;17.56;76.87;99839.17;104317;277;95561;-54
2023/07/22 00:57:37;;;;;;;5.00;4.50;;;;;;;17.56;77.12;99842.98;104276;277;97354;-54
2023/07/22 01:00:15;;;;;;;7.50;4.90;;;;;;;17.57;77.34;99841.96;104249;277;121129;-54
2023/07/22 01:02:50;;;;;;;6.80;4.40;;;;;;;17.53;77.42;99843.68;104734;277;105042;-53
2023/07/22 01:05:24;;;;;;;5.20;4.50;;;;;;;17.50;77.67;99839.70;104313;277;115964;-56
2023/07/22 01:07:59;;;;;;;5.80;4.40;;;;;;;17.47;77.98;99836.89;104331;277;97141;-56
2023/07/22 01:10:33;;;;;;;5.10;4.30;;;;;;;17.41;78.24;99831.45;104775;277;96070;-53
2023/07/22 01:13:08;;;;;;;5.00;4.50;;;;;;;17.36;78.32;99823.61;104271;277;120706;-53
2023/07/22 01:15:41;;;;;;;;;;;;;;;17.36;78.53;99814.15;104293;277;106260;-55
2023/07/22 01:18:15;;;;;;;5.80;5.10;;;;;;;17.35;78.56;99808.80;104725;289;114536;-55
2023/07/22 01:20:48;;;;;;;;;;;;;;;17.40;78.66;99810.89;104724;277;96499;-55
2023/07/22 01:23:22;;;;;;;6.40;5.70;;;;;;;17.41;78.68;99807.59;104253;277;96498;-55
2023/07/22 01:25:57;;;;;;;5.90;5.30;;;;;;;17.39;78.92;99800.45;104277;277;120597;-53
2023/07/22 01:28:31;;;;;;;7.10;5.60;;;;;;;17.42;78.99;99799.50;104273;277;106095;-53
2023/07/22 01:31:05;;;;;;;6.40;5.80;;;;;;;17.44;79.02;99798.34;104240;277;114570;-54
2023/07/22 01:33:39;;;;;;;6.10;5.60;;;;;;;17.47;78.89;99797.58;104562;277;95287;-54
2023/07/22 01:36:13;;;;;;;6.20;5.60;;;;;;;17.47;79.12;99797.19;104551;267;97830;-56
2023/07/22 01:38:47;;;;;;;6.10;5.50;;;;;;;17.47;79.16;99798.29;104094;278;120416;-56
2023/07/22 01:41:22;;;;;;;7.40;5.90;;;;;;;17.47;79.29;99796.77;104076;278;106301;-53
2023/07/22 01:43:56;;;;;;;6.10;5.50;;;;;;;17.46;79.33;99794.57;104040;278;114374;-55
2023/07/22 01:46:31;;;;;;;6.60;5.20;;;;;;;17.47;79.38;99797.15;104050;278;96293;-54
2023/07/22 01:49:08;;;;;;;6.10;5.60;;;;;;;17.46;79.38;99796.86;104496;278;97182;-55
2023/07/22 01:51:43;;;;;;;6.80;5.60;;;;;;;17.43;79.64;99791.19;104043;278;120722;-55
2023/07/22 01:54:17;;;;;;;5.90;5.40;;;;;;;17.44;79.54;99794.15;104455;278;104644;-55
2023/07/22 01:56:51;;;;;;;6.70;6.10;;;;;;;17.39;79.74;99796.30;104035;278;114252;-55
2023/07/22 01:59:26;;;;;;;6.80;6.10;;;;;;;17.37;79.81;99795.39;104071;278;96722;-53
2023/07/22 02:02:00;;;;;;;6.50;5.90;;;;;;;17.40;79.77;99793.65;104052;278;97845;-53
2023/07/22 02:04:32;;;;;;;;;;;;;;;17.43;79.86;99791.45;104093;279;121056;-56
2023/07/22 02:07:06;;;;;;;6.30;5.70;;;;;;;17.41;79.79;99797.11;104150;278;104030;-56
2023/07/22 02:09:39;;;;;;;;;;;;;;;17.34;79.83;99798.52;104546;278;113670;-53
2023/07/22 02:12:13;;;;;;;6.10;5.50;;;;;;;17.29;80.12;99805.02;104053;278;95810;-53
2023/07/22 02:14:45;;;;;;;;;;;;;;;17.26;80.30;99808.80;104099;278;97681;-55
2023/07/22 02:17:20;;;;;;;6.90;6.30;;;;;;;17.24;80.26;99807.71;104114;278;120768;-56
2023/07/22 02:19:54;;;;;;;6.90;6.30;;;;;;;17.23;80.32;99799.17;104517;279;103351;-53
2023/07/22 02:22:28;;;;;;;7.30;6.60;;;;;;;17.22;80.38;99798.64;104470;278;112119;-53
2023/07/22 02:25:03;;;;;;;7.40;6.50;;;;;;;17.20;80.63;99799.63;104036;278;95326;-54
2023/07/22 02:27:36;;;;;;;6.70;6.10;;;;;;;17.19;80.78;99805.02;104057;275;97928;-54
2023/07/22 02:30:12;;;;;;;7.80;7.00;;;;;;;17.21;80.76;99812.70;104060;278;121911;-55
2023/07/22 02:32:46;;;;;;;7.40;6.70;;;;;;;17.22;80.88;99803.11;104130;278;106559;-55
2023/07/22 02:35:20;;;;;;;7.50;6.50;;;;;;;17.18;80.95;99795.33;104514;278;114925;-54
2023/07/22 02:37:54;;;;;;;7.50;6.80;;;;;;;17.17;81.01;99796.91;104057;278;96675;-54
2023/07/22 02:40:28;;;;;;;6.70;6.10;;;;;;;17.14;81.29;99788.72;104477;278;97009;-53
2023/07/22 02:43:03;;;;;;;7.10;6.40;;;;;;;17.11;81.36;99785.67;104475;278;120969;-53
2023/07/22 02:45:37;;;;;;;7.40;6.80;;;;;;;17.11;81.56;99783.83;104070;278;106972;-53
2023/07/22 02:48:11;;;;;;;9.20;6.50;;;;;;;17.10;81.65;99781.17;104449;278;113902;-53
2023/07/22 02:50:45;;;;;;;8.80;7.10;;;;;;;17.08;81.74;99777.14;104058;278;97102;-55
2023/07/22 02:53:18;;;;;;;;;;;;;;;17.10;81.83;99777.48;104081;278;97147;-55
2023/07/22 02:55:53;;;;;;;7.20;6.50;;;;;;;17.08;81.89;99778.27;104078;278;119017;-53
2023/07/22 02:58:27;;;;;;;7.50;6.80;;;;;;;17.10;81.98;99775.72;104459;278;105310;-53
2023/07/22 03:01:00;;;;;;;8.00;6.50;;;;;;;17.11;82.12;99777.54;104046;278;114177;-53
2023/07/22 03:03:35;;;;;;;6.70;6.20;;;;;;;17.10;82.13;99781.00;104033;279;95127;-53
2023/07/22 03:06:09;;;;;;;7.80;7.00;;;;;;;17.08;82.21;99782.05;104094;278;97891;-53
2023/07/22 03:08:43;;;;;;;8.00;7.20;;;;;;;17.08;82.24;99787.30;104492;271;119548;-54
2023/07/22 03:11:17;;;;;;;7.40;6.70;;;;;;;17.04;82.30;99788.45;104593;278;105374;-56
2023/07/22 03:13:50;;;;;;;;;;;;;;;17.03;82.34;99781.66;104572;278;112349;-56
2023/07/22 03:16:25;;;;;;;8.40;7.60;;;;;;;17.04;82.43;99777.31;104127;278;97418;-56
2023/07/22 03:18:59;;;;;;;8.10;7.30;;;;;;;17.07;82.38;99775.51;104139;278;95442;-53
2023/07/22 03:21:33;;;;;;;9.10;8.10;;;;;;;17.09;82.43;99774.05;104060;278;120496;-53
2023/07/22 03:24:07;;;;;;;9.30;8.40;;;;;;;17.10;82.41;99771.58;104069;278;104911;-55
2023/07/22 03:26:41;;;;;;;9.10;8.30;;;;;;;17.10;82.47;99780.20;104062;278;113901;-55
2023/07/22 03:29:14;;;;;;;;;;;;;;;17.16;82.46;99779.05;104089;278;95518;-55
2023/07/22 03:31:49;;;;;;;8.70;7.90;;;;;;;17.16;82.67;99780.36;104568;279;98172;-56
2023/07/22 03:34:23;;;;;;;8.60;7.70;;;;;;;17.18;82.71;99780.71;104123;278;120241;-53
2023/07/22 03:36:57;;;;;;;10.40;8.60;;;;;;;17.18;83.06;99784.20;104054;278;105474;-53
2023/07/22 03:39:32;;;;;;;8.00;7.20;;;;;;;17.20;83.09;99782.44;104069;278;114294;-53
2023/07/22 03:42:07;;;;;;;7.80;7.10;;;;;;;17.27;83.23;99781.26;104075;278;96474;-53
2023/07/22 03:44:41;;;;;;;8.10;7.30;;;;;;;17.33;83.07;99783.20;104077;279;97800;-53
2023/07/22 03:47:15;;;;;;;7.20;6.50;;;;;;;17.41;83.24;99787.66;104475;278;120609;-53
2023/07/22 03:49:50;;;;;;;7.20;6.60;;;;;;;17.49;83.23;99790.52;104063;278;105807;-54
2023/07/22 03:52:24;;;;;;;7.80;6.90;;;;;;;17.51;83.35;99793.50;104061;279;114716;-54
2023/07/22 03:54:58;;;;;;;7.80;7.00;;;;;;;17.55;83.44;99792.48;104044;278;96696;-53
2023/07/22 03:57:32;;;;;;;6.50;6.00;;;;;;;17.63;83.51;99795.91;104058;279;98533;-53
2023/07/22 04:00:10;;;;;;;7.00;6.30;;;;;;;17.76;83.43;99793.96;104084;279;120332;-56
2023/07/22 04:02:44;;;;;;;7.10;6.40;;;;;;;17.89;83.47;99792.30;104136;278;106446;-56
2023/07/22 04:05:22;;;;;;;7.30;6.40;;;;;;;17.95;83.39;99799.81;104094;278;112313;-55
2023/07/22 04:07:54;;;;;;;;;;;;;;;18.00;83.18;99800.81;104083;278;97325;-55
2023/07/22 04:10:28;;;;;;;7.50;6.80;;;;;;;18.04;82.98;99799.35;104083;279;96984;-53
2023/07/22 04:13:01;;;;;;;;;;;;;;;18.12;82.83;99800.98;104078;278;119506;-54
2023/07/22 04:15:36;;;;;;;7.20;6.40;;;;;;;18.47;83.02;99799.48;104072;278;105229;-54
2023/07/22 04:18:10;;;;;;;7.10;6.40;;;;;;;18.52;82.55;99796.27;104078;278;114492;-54
2023/07/22 04:20:44;;;;;;;8.10;7.30;;;;;;;18.64;82.81;99797.39;104108;278;96491;-56
2023/07/22 04:23:18;;;;;;;7.80;7.00;;;;;;;18.64;82.49;99790.99;104132;278;97634;-56
2023/07/22 04:25:52;;;;;;;8.70;7.80;;;;;;;18.64;82.15;99794.45;104068;278;120622;-53
2023/07/22 04:28:26;;;;;;;8.60;7.80;;;;;;;18.58;81.89;99793.27;104486;279;104805;-53
2023/07/22 04:31:02;;;;;;;8.40;7.60;;;;;;;18.50;82.01;99802.86;104109;278;114196;-56
2023/07/22 04:33:35;;;;;;;8.90;8.00;;;;;;;18.46;81.95;99800.39;103959;279;95827;-55
2023/07/22 04:36:10;;;;;;;7.80;7.10;;;;;;;18.43;81.61;99800.52;104051;278;97743;-54
2023/07/22 04:38:43;;;;;;;8.40;7.60;;;;;;;18.41;81.60;99798.95;104456;278;121159;-54
2023/07/22 04:41:17;;;;;;;8.20;7.50;;;;;;;18.37;81.52;99799.28;104050;278;106360;-54
2023/07/22 04:43:52;;;;;;;8.30;7.30;;;;;;;18.35;81.34;99805.16;104467;278;111984;-54
2023/07/22 04:46:26;;;;;;;9.20;7.70;;;;;;;18.37;81.45;99807.70;104123;279;97022;-55
2023/07/22 04:49:01;;;;;;;8.30;7.50;;;;;;;18.40;81.42;99813.39;104149;278;95940;-56
2023/07/22 04:51:35;;;;;;;8.20;7.40;;;;;;;18.42;81.57;99814.88;104163;278;120919;-56
2023/07/22 04:54:08;;;;;;;8.00;7.30;;;;;;;18.38;81.63;99817.77;104110;279;104408;-55
2023/07/22 04:56:43;;;;;;;7.70;6.90;;;;;;;18.36;81.53;99817.32;104047;279;113270;-55
2023/07/22 04:59:18;;;;;;;8.50;7.10;;;;;;;18.37;81.63;99823.23;104085;278;97447;-54
2023/07/22 05:01:52;;;;;;;7.80;7.10;;;;;;;18.34;81.65;99827.73;104489;279;97656;-54
2023/07/22 05:04:26;;;;;;;7.90;7.10;;;;;;;18.32;81.62;99833.73;104489;278;119847;-55
2023/07/22 05:07:00;;;;;;;7.40;6.70;;;;;;;18.28;81.51;99838.70;104089;278;104917;-55
2023/07/22 05:09:34;;;;;;;7.30;6.70;;;;;;;18.21;81.57;99840.60;104562;278;114234;-56
2023/07/22 05:12:09;;;;;;;6.90;6.30;;;;;;;18.19;81.37;99840.89;104562;278;96123;-56
2023/07/22 05:14:43;;;;;;;8.30;7.20;;;;;;;18.14;81.27;99846.66;104559;278;97445;-53
2023/07/22 05:17:17;;;;;;;8.40;7.60;;;;;;;18.10;81.61;99855.19;104063;278;121125;-53
2023/07/22 05:19:49;;;;;;;;;;;;;;;18.11;81.66;99857.39;103575;279;104624;-55
2023/07/22 05:22:24;;;;;;;7.90;7.10;;;;;;;18.09;81.69;99855.94;104494;279;113307;-55
2023/07/22 05:24:58;;;;;;;8.50;7.10;;;;;;;18.03;81.78;99862.86;104087;278;96092;-55
2023/07/22 05:27:30;;;;;;;;;;;;;;;18.04;81.79;99860.69;104143;278;98119;-56
2023/07/22 05:30:06;;;;;;;7.80;7.00;;;;;;;18.11;81.92;99858.05;104109;267;120908;-55
2023/07/22 05:32:40;;;;;;;7.60;6.80;;;;;;;18.18;82.00;99856.19;104095;278;102975;-56
2023/07/22 05:35:14;;;;;;;7.70;6.90;;;;;;;18.26;81.82;99856.78;104090;278;114732;-53
2023/07/22 05:37:48;;;;;;;7.50;6.80;;;;;;;18.25;81.73;99857.55;104090;278;96892;-53
2023/07/22 05:40:23;;;;;;;7.60;6.90;;;;;;;18.26;81.78;99859.25;104093;278;98040;-54
2023/07/22 05:42:57;;;;;;;7.30;6.50;;;;;;;18.31;81.62;99858.11;104069;278;118370;-53
2023/07/22 05:45:31;;;;;;;8.20;6.80;;;;;;;18.38;81.54;99853.59;104513;278;106013;-55
2023/07/22 05:48:06;;;;;;;6.80;6.20;;;;;;;18.43;81.68;99856.30;104119;278;113851;-56
2023/07/22 05:50:39;;;;;;;6.70;6.10;;;;;;;18.52;81.47;99858.57;104084;278;96281;-53
2023/07/22 05:53:14;;;;;;;6.80;6.00;;;;;;;18.53;81.39;99859.71;104086;278;96665;-53
2023/07/22 05:55:48;;;;;;;6.60;5.90;;;;;;;18.57;81.30;99862.80;104081;278;120218;-53
2023/07/22 05:58:22;;;;;;;6.30;5.70;;;;;;;18.57;81.35;99868.00;104087;279;105705;-53
2023/07/22 06:00:58;;;;;;;7.10;5.70;;;;;;;18.68;81.21;99868.96;104115;278;114021;-56
2023/07/22 06:03:32;;;;;;;6.30;5.70;;;;;;;18.73;81.17;99869.80;104121;278;96372;-56
2023/07/22 06:06:07;;;;;;;5.50;5.00;;;;;;;18.82;81.07;99860.22;104490;278;97732;-53
2023/07/22 06:08:39;;;;;;;;;;;;;;;18.95;81.05;99859.39;104072;278;120313;-53
2023/07/22 06:11:13;;;;;;;5.90;5.30;;;;;;;19.06;81.18;99859.94;104498;278;105226;-53
2023/07/22 06:13:45;;;;;;;;;;;;;;;19.37;81.19;99852.38;104074;278;112523;-53
2023/07/22 06:16:20;;;;;;;5.10;4.60;;;;;;;20.26;81.26;99847.79;104076;278;96913;-53
2023/07/22 06:18:55;;;;;;;5.90;5.00;;;;;;;20.86;79.72;99846.27;104119;278;97300;-54
2023/07/22 06:21:29;;;;;;;7.20;5.30;;;;;;;20.99;78.89;99852.91;104056;278;119093;-53
2023/07/22 06:24:03;;;;;;;5.70;4.60;;;;;;;21.10;78.33;99854.17;104086;279;105459;-53
2023/07/22 06:26:37;;;;;;;5.10;4.40;;;;;;;21.21;78.22;99848.92;104053;279;114810;-53
2023/07/22 06:29:11;;;;;;;5.30;4.60;;;;;;;21.42;77.32;99850.88;104066;278;95065;-54
2023/07/22 06:31:46;;;;;;;4.60;4.00;;;;;;;21.58;76.49;99848.09;104499;278;97163;-53
2023/07/22 06:34:20;;;;;;;4.10;3.70;;;;;;;21.53;75.44;99850.17;104473;278;121299;-56
2023/07/22 06:36:54;;;;;;;4.40;3.90;;;;;;;21.40;74.87;99857.80;104164;278;105288;-56
2023/07/22 06:39:26;;;;;;;;;;;;;;;21.34;74.70;99858.17;104115;278;113897;-54
2023/07/22 06:42:00;;;;;;;4.00;3.30;;;;;;;21.32;74.51;99859.05;104122;278;94100;-54
2023/07/22 06:44:34;;;;;;;5.30;3.60;;;;;;;21.36;74.57;99860.33;104138;278;96371;-55
2023/07/22 06:47:07;;;;;;;;;;;;;;;21.51;74.18;99865.01;104083;279;118807;-55
2023/07/22 06:49:41;;;;;;;5.30;3.80;;;;;;;21.78;73.85;99866.57;104093;278;104895;-53
2023/07/22 06:52:16;;;;;;;5.10;3.50;;;;;;;22.17;73.65;99867.27;104079;278;114767;-53
2023/07/22 06:54:50;;;;;;;5.50;3.30;;;;;;;22.68;73.30;99871.70;104069;278;96068;-56
2023/07/22 06:57:25;;;;;;;4.30;2.90;;;;;;;23.12;71.83;99874.98;104091;278;96816;-56
2023/07/22 07:00:00;;;;;;;5.40;3.30;;;;;;;23.11;71.00;99878.89;104505;278;120603;-56
2023/07/22 07:02:34;;;;;;;5.40;3.30;;;;;;;23.30;70.62;99877.46;104072;278;105655;-56
2023/07/22 07:05:07;;;;;;;;;;;;;;;23.58;69.21;99874.27;104090;278;115039;-54
2023/07/22 07:07:41;;;;;;;3.50;3.20;;;;;;;23.46;68.66;99876.17;104042;278;93688;-52
2023/07/22 07:10:13;;;;;;;;;;;;;;;23.32;67.95;99876.56;104122;278;97813;-56
2023/07/22 07:12:47;;;;;;;4.90;3.30;;;;;;;23.16;67.76;99882.12;104081;278;120527;-55
2023/07/22 07:15:21;;;;;;;3.70;3.30;;;;;;;23.03;67.28;99889.18;104494;278;105139;-54
2023/07/22 07:17:53;;;;;;;;;;;;;;;22.84;67.04;99887.56;104067;278;113601;-52
2023/07/22 07:20:27;;;;;;;5.50;3.60;;;;;;;22.79;67.21;99895.68;104093;279;94073;-55
2023/07/22 07:23:01;;;;;;;5.40;3.10;;;;;;;22.76;66.78;99893.27;104144;278;96736;-55
2023/07/22 07:25:35;;;;;;;3.50;3.00;;;;;;;22.56;66.82;99897.18;104104;279;120108;-53
2023/07/22 07:28:07;;;;;;;;;;;;;;;22.55;66.94;99904.33;104126;278;105136;-53
2023/07/22 07:30:42;;;;;;;3.80;3.10;;;;;;;22.75;67.02;99903.23;104149;278;114438;-55
2023/07/22 07:33:16;;;;;;;4.70;2.90;;;;;;;23.32;66.66;99906.73;104172;279;92489;-56
2023/07/22 07:35:51;;;;;;;5.40;3.20;;;;;;;24.80;65.88;99891.67;103942;279;100622;-53
2023/07/22 07:38:25;;;;;;;4.60;3.10;;;;;;;25.90;64.28;99892.00;104069;278;119272;-53
2023/07/22 07:41:00;;;;;;;;;;;;;;;27.55;62.84;99901.19;104099;278;105727;-53
2023/07/22 07:43:32;;;;;;;;;;;;;;;29.20;60.19;99899.77;104094;278;114169;-53
2023/07/22 07:46:21;;;;;;;3.60;2.20;;;;;;;30.65;56.24;99898.70;104481;278;94925;-55
2023/07/22 07:48:58;;;;;;;3.30;2.20;;;;;;;31.54;54.18;99898.38;103904;279;99851;-54
2023/07/22 07:51:34;;;;;;;4.00;2.20;;;;;;;31.26;53.08;99907.98;104491;278;120413;-55
2023/07/22 07:54:08;;;;;;;5.30;2.90;;;;;;;32.04;51.71;99912.36;104118;278;104871;-55
2023/07/22 07:56:42;;;;;;;2.60;2.00;;;;;;;33.07;49.29;99909.77;104501;278;113440;-55
2023/07/22 07:59:15;;;;;;;2.20;1.70;;;;;;;33.76;47.51;99911.21;104504;278;95650;-54
2023/07/22 08:01:49;;;;;;;4.00;1.80;;;;;;;34.07;45.77;99909.81;104516;278;96606;-54
2023/07/22 08:04:23;;;;;;;1.90;1.60;;;;;;;34.49;44.34;99916.03;104106;278;120717;-57
2023/07/22 08:06:57;;;;;;;2.80;1.70;;;;;;;34.80;43.11;99917.69;104160;278;105974;-57
2023/07/22 08:09:31;;;;;;;2.00;1.60;;;;;;;34.65;41.81;99916.56;104504;279;114458;-57
2023/07/22 08:12:06;;;;;;;2.30;1.60;;;;;;;34.88;40.35;99915.88;104020;279;94157;-57
2023/07/22 08:14:40;;;;;;;2.50;1.60;;;;;;;35.36;40.00;99925.74;104022;279;98024;-61
2023/07/22 08:17:14;;;;;;;4.10;1.80;;;;;;;35.77;38.79;99930.80;104006;279;120112;-60
2023/07/22 08:19:48;;;;;;;3.90;2.00;;;;;;;35.77;38.12;99931.10;104012;279;104426;-60
2023/07/22 08:22:23;;;;;;;35.90;15.20;;;;;;;35.62;36.70;99929.39;104010;279;114484;-68
2023/07/22 08:24:57;;;;;;;5.20;2.40;;;;;;;35.80;36.60;99935.84;103986;279;93384;-64
2023/07/22 08:27:31;;;;;;;4.10;1.80;;;;;;;35.84;36.43;99941.29;104493;279;97334;-56
2023/07/22 08:30:07;;;;;;;3.00;1.60;;;;;;;35.91;35.01;99940.89;103949;279;120070;-55
2023/07/22 08:32:41;;;;;;;2.70;1.50;;;;;;;36.10;34.68;99945.96;103997;279;105421;-55
2023/07/22 08:35:17;;;;;;;3.20;1.50;;;;;;;36.11;34.17;99949.49;104414;279;115326;-53
2023/07/22 08:37:51;;;;;;;2.10;1.40;;;;;;;36.44;34.23;99950.52;103914;279;97062;-53
2023/07/22 08:40:25;;;;;;;2.20;1.70;;;;;;;36.47;33.07;99953.70;104041;279;96751;-57
2023/07/22 08:42:59;;;;;;;2.30;1.60;;;;;;;36.58;33.36;99952.64;104423;279;119740;-57
2023/07/22 08:45:36;;;;;;;2.60;1.80;;;;;;;36.43;32.86;99956.34;104000;279;104762;-58
2023/07/22 08:48:13;;;;;;;2.30;1.60;;;;;;;35.72;32.75;99960.06;103990;279;116240;-58
2023/07/22 08:50:54;;;;;;;2.60;1.80;;;;;;;35.37;33.08;99962.38;103986;279;95100;-56
2023/07/22 08:53:33;;;;;;;2.90;1.90;;;;;;;35.05;33.21;99968.23;104019;279;95493;-56
2023/07/22 08:56:07;;;;;;;2.80;1.90;;;;;;;33.85;33.38;99968.42;103974;279;119780;-57
2023/07/22 08:58:43;;;;;;;3.10;1.60;;;;;;;33.37;34.00;99966.66;103993;279;105283;-56
2023/07/22 09:01:17;;;;;;;3.20;1.70;;;;;;;33.71;34.95;99967.48;104511;279;115151;-57
2023/07/22 09:03:56;;;;;;;3.10;1.80;;;;;;;34.02;34.70;99974.48;104013;279;93003;-56
2023/07/22 09:06:32;;;;;;;4.90;2.20;;;;;;;34.21;34.69;99973.77;103744;279;98771;-54
2023/07/22 09:09:08;;;;;;;3.50;2.10;;;;;;;34.52;34.16;99971.92;104497;278;121077;-53
2023/07/22 09:11:43;;;;;;;2.30;2.00;;;;;;;33.62;33.72;99974.42;104090;279;105416;-53
2023/07/22 09:14:19;;;;;;;2.30;2.10;;;;;;;32.26;34.43;99982.98;104056;278;113845;-53
2023/07/22 09:16:55;;;;;;;2.50;1.80;;;;;;;31.99;35.85;99981.46;104071;278;94406;-55
2023/07/22 09:19:31;;;;;;;4.40;2.30;;;;;;;31.90;36.25;99982.39;104103;278;96973;-55
2023/07/22 09:22:06;;;;;;;2.40;2.00;;;;;;;31.43;36.74;99979.59;103926;280;120662;-55
2023/07/22 09:24:40;;;;;;;2.50;2.00;;;;;;;30.76;36.71;99977.54;104479;278;105548;-56
2023/07/22 09:27:15;;;;;;;2.40;1.80;;;;;;;30.44;37.14;99979.38;104084;278;114908;-56
2023/07/22 09:29:51;;;;;;;2.50;1.80;;;;;;;30.24;37.79;99979.59;104508;279;95386;-56
2023/07/22 09:32:37;;;;;;;2.90;1.80;;;;;;;30.30;38.68;99977.55;104093;278;96719;-55
2023/07/22 09:35:12;;;;;;;3.90;2.20;;;;;;;30.53;38.26;99983.77;104490;279;119811;-56
2023/07/22 09:37:47;;;;;;;2.10;1.40;;;;;;;30.45;38.47;99977.52;104083;278;105113;-55
2023/07/22 09:40:24;;;;;;;1.90;1.70;;;;;;;30.02;38.16;99980.23;104103;278;113621;-55
2023/07/22 09:43:03;;;;;;;2.90;2.10;;;;;;;29.64;38.04;99978.05;104102;278;94751;-55
2023/07/22 09:45:38;;;;;;;2.60;1.70;;;;;;;29.48;38.09;99983.71;104092;278;96826;-55
2023/07/22 09:48:13;;;;;;;2.60;1.80;;;;;;;29.56;38.52;99980.03;104093;278;118883;-55
2023/07/22 09:50:47;;;;;;;1.80;1.40;;;;;;;29.77;39.16;99986.89;104105;279;103815;-55
2023/07/22 09:53:21;;;;;;;2.20;1.30;;;;;;;29.90;38.99;99989.73;104081;278;113084;-55
2023/07/22 09:55:56;;;;;;;2.00;1.40;;;;;;;29.84;38.65;99993.82;104091;282;94668;-54
2023/07/22 09:58:32;;;;;;;1.80;1.60;;;;;;;29.65;38.46;99993.73;104489;279;98452;-53
2023/07/22 10:01:06;;;;;;;3.10;1.70;;;;;;;29.59;38.24;99995.30;104047;278;120864;-54
2023/07/22 10:03:44;;;;;;;1.90;1.50;;;;;;;29.48;38.29;99996.70;104053;278;106044;-54
2023/07/22 10:06:18;;;;;;;1.50;1.40;;;;;;;29.47;38.73;100000.36;104457;278;114911;-55
2023/07/22 10:08:53;;;;;;;3.60;1.90;;;;;;;29.45;38.90;100002.73;104064;278;93796;-55
2023/07/22 10:11:32;;;;;;;2.60;1.70;;;;;;;29.54;38.35;100005.38;104570;278;97620;-57
2023/07/22 10:14:08;;;;;;;3.90;1.80;;;;;;;29.33;37.86;100004.11;104579;267;119269;-55
2023/07/22 10:16:42;;;;;;;2.00;1.10;;;;;;;29.39;38.12;99999.91;104487;279;106140;-54
2023/07/22 10:19:19;;;;;;;2.20;1.20;;;;;;;29.46;37.48;100004.86;104473;278;114364;-54
2023/07/22 10:21:53;;;;;;;1.40;1.20;;;;;;;29.03;37.16;100009.83;104047;278;94316;-54
2023/07/22 10:24:28;;;;;;;1.50;1.20;;;;;;;28.51;37.54;100018.16;104100;279;97814;-54
2023/07/22 10:27:04;;;;;;;1.90;1.40;;;;;;;28.69;38.07;100013.81;104099;267;121293;-54
2023/07/22 10:29:39;;;;;;;2.90;1.90;;;;;;;28.69;38.23;100013.42;104094;278;106016;-55
2023/07/22 10:32:14;;;;;;;2.80;2.10;;;;;;;28.46;38.16;100015.90;104075;278;112620;-55
2023/07/22 10:34:48;;;;;;;1.80;1.40;;;;;;;28.06;37.89;100021.98;104107;278;94660;-56
2023/07/22 10:37:30;;;;;;;3.20;1.40;;;;;;;27.56;38.33;100018.92;104134;279;96543;-61
2023/07/22 10:40:27;;;;;;;1.90;1.20;;;;;;;27.15;39.06;100018.28;104483;278;119888;-66
2023/07/22 10:43:11;;;;;;;3.70;1.20;;;;;;;26.79;39.85;100021.31;104086;278;103745;-66
2023/07/22 10:45:53;;;;;;;1.70;1.20;;;;;;;26.74;40.07;100023.80;104059;278;114890;-69
2023/07/22 10:48:36;;;;;;;2.00;1.30;;;;;;;26.81;40.07;100023.09;104088;278;94442;-60
2023/07/22 10:51:17;;;;;;;2.40;1.30;;;;;;;26.76;40.33;100021.90;104113;278;96744;-61
2023/07/22 10:53:56;;;;;;;3.30;1.30;;;;;;;26.70;40.48;100026.87;104495;278;121885;-60
2023/07/22 10:56:30;;;;;;;1.80;1.30;;;;;;;26.98;41.06;100022.48;104494;278;106128;-60
2023/07/22 10:59:05;;;;;;;2.30;1.30;;;;;;;27.41;41.21;100021.52;104058;278;114041;-60
2023/07/22 11:01:41;;;;;;;1.90;1.50;;;;;;;27.64;40.80;100019.31;104075;279;95261;-60
2023/07/22 11:04:30;;;;;;;2.10;1.40;;;;;;;27.35;40.62;100013.38;104089;279;96500;-61
2023/07/22 11:07:07;;;;;;;3.30;1.40;;;;;;;27.14;40.96;100018.67;104094;278;118244;-64
2023/07/22 11:09:44;;;;;;;2.10;1.40;;;;;;;27.37;41.45;100019.98;104049;279;106092;-63
2023/07/22 11:12:21;;;;;;;2.20;1.40;;;;;;;27.23;40.86;100023.15;104022;279;113338;-63
2023/07/22 11:15:06;;;;;;;2.50;1.50;;;;;;;27.03;40.93;100024.89;104041;279;94022;-63
2023/07/22 11:17:41;;;;;;;2.20;1.40;;;;;;;26.83;40.80;100027.82;104455;279;98319;-62
2023/07/22 11:20:15;;;;;;;2.80;1.40;;;;;;;26.64;41.01;100028.47;104065;279;121287;-62
2023/07/22 11:22:53;;;;;;;2.60;1.40;;;;;;;26.46;40.87;100033.31;103950;279;104465;-63
2023/07/22 11:25:29;;;;;;;2.60;1.40;;;;;;;26.25;41.12;100025.47;104033;279;115412;-64
2023/07/22 11:28:04;;;;;;;3.20;1.50;;;;;;;26.29;41.46;100031.44;104030;279;94075;-65
2023/07/22 11:30:41;;;;;;;2.00;1.20;;;;;;;26.52;41.62;100031.29;104040;279;97076;-64
2023/07/22 11:33:15;;;;;;;3.30;1.60;;;;;;;26.60;41.59;100025.83;104015;279;120444;-64
2023/07/22 11:35:49;;;;;;;2.50;1.50;;;;;;;26.45;41.48;100029.18;104002;279;104649;-60
2023/07/22 11:38:27;;;;;;;2.60;1.60;;;;;;;26.37;41.38;100028.38;103983;279;113670;-52
2023/07/22 11:41:04;;;;;;;1.90;1.70;;;;;;;26.17;41.62;100027.92;103993;279;94444;-53
2023/07/22 11:43:40;;;;;;;2.30;1.50;;;;;;;26.11;41.87;100027.55;104429;279;95199;-53
2023/07/22 11:46:17;;;;;;;3.00;1.70;;;;;;;26.08;42.03;100029.93;104456;279;119781;-55
2023/07/22 11:48:57;;;;;;;2.10;1.40;;;;;;;26.29;42.31;100024.02;103989;279;106561;-53
2023/07/22 11:51:33;;;;;;;4.10;1.70;;;;;;;26.38;41.96;100026.86;104002;271;114729;-54
2023/07/22 11:54:15;;;;;;;3.10;1.40;;;;;;;26.42;42.09;100022.59;104006;279;94469;-55
2023/07/22 11:56:49;;;;;;;1.80;1.40;;;;;;;26.42;42.40;100019.48;104046;279;97410;-55
2023/07/22 11:59:40;;;;;;;3.20;2.00;;;;;;;26.43;42.27;100015.13;104027;279;119955;-52
2023/07/22 12:02:25;;;;;;;2.30;1.50;;;;;;;26.26;41.98;100009.05;104420;279;104985;-55
2023/07/22 12:05:03;;;;;;;3.90;1.50;;;;;;;26.05;41.76;100003.95;103970;279;113665;-68
2023/07/22 12:07:41;;;;;;;2.70;1.70;;;;;;;26.15;41.89;100003.42;103908;280;95882;-66